Time;durP1;ratioP1;P1;durP2;ratioP2;P2;SDS_P1;SDS_P2;PMS_P1;PMS_P2;Temp;Humidity;BMP_temperature;BMP_pressure;BME280_temperature;BME280_humidity;BME280_pressure;Samples;Min_cycle;Max_cycle;Signal;HPM_P1;HPM_P2
2021/04/13 00:00:06;;;;;;;8.18;7.57;;;17.80;97.70;;;;;;5073084;28;20480;-60
2021/04/13 00:02:39;;;;;;;8.60;7.80;;;17.90;98.30;;;;;;5072943;28;20480;-61
2021/04/13 00:05:20;;;;;;;10.30;7.63;;;17.90;97.60;;;;;;5072753;28;20017;-62
2021/04/13 00:07:49;;;;;;;8.95;8.32;;;17.70;98.00;;;;;;5071550;28;20030;-61
2021/04/13 00:10:22;;;;;;;9.73;8.30;;;17.70;97.90;;;;;;5071597;28;20021;-62
2021/04/13 00:12:51;;;;;;;8.95;8.23;;;17.80;98.00;;;;;;5071389;28;20362;-61
2021/04/13 00:15:27;;;;;;;9.23;8.48;;;17.80;98.00;;;;;;5072622;28;20017;-61
2021/04/13 00:17:56;;;;;;;9.85;8.85;;;18.10;97.80;;;;;;5072698;28;20362;-61
2021/04/13 00:20:47;;;;;;;9.10;8.20;;;18.30;97.70;;;;;;5072676;28;20025;-61
2021/04/13 00:23:15;;;;;;;8.85;8.05;;;18.50;97.90;;;;;;5072531;28;20269;-61
2021/04/13 00:26:15;;;;;;;8.60;8.02;;;18.60;97.70;;;;;;5072658;28;20021;-62
2021/04/13 00:28:50;;;;;;;9.10;7.95;;;18.90;97.80;;;;;;5041035;28;20040;-62
2021/04/13 00:31:41;;;;;;;7.38;6.88;;;18.90;96.30;;;;;;5072390;28;20490;-61
2021/04/13 00:34:13;;;;;;;;;;;19.10;95.60;;;;;;5072962;28;20086;-62
2021/04/13 00:36:42;;;;;;;8.20;7.60;;;19.30;95.50;;;;;;5072559;28;19908;-62
2021/04/13 00:39:28;;;;;;;8.32;7.72;;;19.00;96.10;;;;;;5072358;28;20071;-62
2021/04/13 00:42:05;;;;;;;8.38;7.78;;;19.20;95.70;;;;;;5072393;28;20508;-61
2021/04/13 00:44:37;;;;;;;7.43;6.68;;;19.30;95.40;;;;;;5076398;28;20071;-62
2021/04/13 00:47:27;;;;;;;7.30;6.78;;;19.50;95.10;;;;;;5076485;28;20376;-61
2021/04/13 00:50:01;;;;;;;7.63;6.80;;;19.60;95.00;;;;;;5067062;28;20048;-63
2021/04/13 00:52:46;;;;;;;7.75;7.10;;;19.70;95.30;;;;;;5076456;28;20534;-64
2021/04/13 00:55:16;;;;;;;7.93;7.20;;;19.30;94.50;;;;;;5076487;28;20032;-64
2021/04/13 00:57:57;;;;;;;7.65;7.05;;;19.50;94.40;;;;;;5074875;28;20035;-64
2021/04/13 01:00:33;;;;;;;9.77;7.32;;;19.40;94.80;;;;;;5076329;28;20435;-64
2021/04/13 01:03:05;;;;;;;8.20;7.35;;;19.50;94.50;;;;;;5074732;28;20493;-64
2021/04/13 01:05:42;;;;;;;7.45;6.90;;;19.20;94.40;;;;;;5076103;28;20488;-64
2021/04/13 01:08:21;;;;;;;7.60;7.00;;;19.40;94.10;;;;;;5076083;28;20021;-64
2021/04/13 01:10:49;;;;;;;10.93;7.03;;;19.50;94.70;;;;;;5075951;28;20031;-63
2021/04/13 01:13:21;;;;;;;7.43;6.72;;;19.90;94.60;;;;;;5075891;28;20033;-63
2021/04/13 01:15:52;;;;;;;7.22;6.72;;;20.20;95.30;;;;;;5074773;28;20101;-65
2021/04/13 01:18:41;;;;;;;6.85;6.45;;;20.30;93.10;;;;;;5074716;28;20126;-63
2021/04/13 01:21:52;;;;;;;7.45;6.88;;;20.30;93.50;;;;;;5076104;28;20024;-63
2021/04/13 01:24:28;;;;;;;7.50;6.90;;;20.20;93.60;;;;;;5065581;28;20071;-64
2021/04/13 01:26:57;;;;;;;7.00;6.50;;;20.40;94.10;;;;;;5075871;28;20032;-62
2021/04/13 01:29:28;;;;;;;7.20;6.70;;;20.80;93.70;;;;;;5075542;28;20025;-63
2021/04/13 01:32:01;;;;;;;7.47;6.78;;;20.90;94.00;;;;;;5075587;28;20404;-62
2021/04/13 01:34:36;;;;;;;7.13;6.53;;;21.20;93.80;;;;;;5075711;28;20021;-62
2021/04/13 01:37:15;;;;;;;7.03;6.40;;;21.20;93.00;;;;;;5075535;28;20059;-62
2021/04/13 01:40:04;;;;;;;7.30;6.75;;;21.00;93.10;;;;;;5075305;28;20044;-62
2021/04/13 01:42:33;;;;;;;8.05;7.45;;;20.50;93.30;;;;;;5075284;28;20058;-62
2021/04/13 01:45:14;;;;;;;6.72;6.32;;;20.20;93.40;;;;;;5075397;28;20039;-62
2021/04/13 01:47:43;;;;;;;7.65;6.93;;;20.70;94.60;;;;;;5075325;28;20025;-62
2021/04/13 01:50:23;;;;;;;6.97;6.47;;;21.20;94.60;;;;;;5073816;28;20028;-62
2021/04/13 01:52:52;;;;;;;;;;;21.50;93.60;;;;;;5075889;28;20048;-63
2021/04/13 01:55:29;;;;;;;7.68;7.07;;;21.60;92.90;;;;;;5073637;28;20372;-62
2021/04/13 01:58:14;;;;;;;7.15;6.45;;;21.90;92.70;;;;;;5073848;28;20403;-61
2021/04/13 02:00:51;;;;;;;6.40;5.90;;;21.90;92.90;;;;;;5074801;28;20069;-62
2021/04/13 02:03:37;;;;;;;6.63;6.20;;;21.80;92.80;;;;;;5074869;28;20051;-63
2021/04/13 02:06:43;;;;;;;7.38;6.97;;;21.50;92.40;;;;;;5075073;28;20027;-62
2021/04/13 02:09:34;;;;;;;7.50;6.80;;;21.90;92.60;;;;;;5044403;28;20052;-63
2021/04/13 02:12:11;;;;;;;6.80;6.30;;;22.00;92.20;;;;;;5074730;28;20029;-65
2021/04/13 02:14:53;;;;;;;7.22;6.75;;;22.30;92.90;;;;;;5074812;28;20068;-66
2021/04/13 02:17:34;;;;;;;7.85;7.35;;;22.50;92.20;;;;;;5074772;28;20020;-62
2021/04/13 02:20:00;;;;;;;;;;;22.50;92.20;;;;;;5075158;28;20434;-63
2021/04/13 02:22:28;;;;;;;6.57;6.13;;;22.60;92.40;;;;;;5074504;28;19908;-62
2021/04/13 02:25:02;;;;;;;6.82;6.28;;;21.90;92.30;;;;;;5074609;28;20386;-65
2021/04/13 02:27:32;;;;;;;6.47;6.07;;;22.30;92.20;;;;;;5074520;28;20481;-63
2021/04/13 02:30:18;;;;;;;6.80;6.20;;;22.40;92.10;;;;;;5074410;28;20017;-62
2021/04/13 02:32:51;;;;;;;7.03;6.50;;;22.70;92.70;;;;;;5074347;28;20028;-62
2021/04/13 02:35:24;;;;;;;7.22;6.47;;;22.60;93.70;;;;;;5074273;28;20362;-63
2021/04/13 02:37:54;;;;;;;7.47;6.78;;;22.30;92.30;;;;;;5074538;28;20485;-62
2021/04/13 02:40:45;;;;;;;7.68;7.07;;;22.20;93.80;;;;;;5074043;28;20045;-63
2021/04/13 02:43:15;;;;;;;;;;;22.50;93.70;;;;;;5074638;28;20029;-62
2021/04/13 02:45:54;;;;;;;12.17;7.43;;;22.40;93.00;;;;;;5073963;28;19904;-62
2021/04/13 02:48:30;;;;;;;11.37;7.10;;;22.60;93.00;;;;;;5073128;28;20020;-62
2021/04/13 02:51:04;;;;;;;12.18;8.00;;;22.60;93.50;;;;;;5074090;28;20024;-63
2021/04/13 02:53:39;;;;;;;12.30;7.53;;;22.50;93.30;;;;;;5073830;28;20032;-63
2021/04/13 02:56:32;;;;;;;11.32;7.05;;;22.60;93.20;;;;;;5073769;28;20024;-63
2021/04/13 02:59:16;;;;;;;11.48;6.70;;;22.60;93.10;;;;;;5073928;28;20108;-63
2021/04/13 03:01:52;;;;;;;8.30;7.05;;;22.70;93.10;;;;;;5073876;28;20028;-64
2021/04/13 03:04:21;;;;;;;8.50;6.13;;;22.80;92.90;;;;;;5073571;28;20020;-62
2021/04/13 03:06:53;;;;;;;6.65;6.13;;;22.80;92.80;;;;;;5073420;28;20050;-62
2021/04/13 03:09:24;;;;;;;7.65;5.60;;;22.70;93.60;;;;;;5073684;28;20407;-62
2021/04/13 03:12:00;;;;;;;6.88;6.10;;;22.70;92.80;;;;;;5073734;28;20095;-62
2021/04/13 03:14:33;;;;;;;6.47;5.88;;;22.70;93.20;;;;;;5073803;28;20457;-62
2021/04/13 03:17:01;;;;;;;6.47;5.88;;;22.60;92.90;;;;;;5072913;28;20013;-61
2021/04/13 03:19:30;;;;;;;8.05;6.63;;;22.60;93.40;;;;;;5073637;28;20024;-62
2021/04/13 03:22:04;;;;;;;6.68;6.18;;;22.70;93.60;;;;;;5073588;28;20051;-62
2021/04/13 03:24:40;;;;;;;7.72;6.10;;;22.60;93.70;;;;;;5073519;28;20477;-63
2021/04/13 03:27:19;;;;;;;6.80;6.20;;;22.70;93.40;;;;;;5073497;28;20020;-63
2021/04/13 03:29:52;;;;;;;8.82;6.43;;;22.90;93.70;;;;;;5073412;28;20538;-64
2021/04/13 03:32:23;;;;;;;6.53;5.93;;;22.80;93.60;;;;;;5073349;28;20103;-62
2021/04/13 03:34:51;;;;;;;9.88;6.70;;;22.70;93.50;;;;;;5073631;28;20020;-62
2021/04/13 03:37:20;;;;;;;7.95;7.35;;;22.50;93.90;;;;;;5073340;28;20024;-63
2021/04/13 03:39:48;;;;;;;8.00;7.20;;;22.90;93.50;;;;;;5073009;28;20041;-63
2021/04/13 03:42:27;;;;;;;7.05;6.38;;;22.80;92.90;;;;;;5073143;28;20132;-63
2021/04/13 03:44:57;;;;;;;7.65;6.68;;;23.00;93.80;;;;;;5073243;28;20024;-62
2021/04/13 03:47:31;;;;;;;6.72;6.18;;;23.10;93.10;;;;;;5071774;28;20128;-63
2021/04/13 03:50:00;;;;;;;8.60;6.32;;;22.60;94.20;;;;;;5073164;28;20099;-64
2021/04/13 03:52:34;;;;;;;7.45;7.00;;;22.70;93.60;;;;;;5073205;28;20397;-64
2021/04/13 03:55:23;;;;;;;7.30;6.68;;;22.80;93.50;;;;;;5073134;28;20059;-64
2021/04/13 03:57:50;;;;;;;8.00;7.50;;;23.00;94.00;;;;;;5073100;28;20028;-61
2021/04/13 04:00:20;;;;;;;8.07;7.38;;;23.10;94.30;;;;;;5072951;28;20104;-64
2021/04/13 04:02:49;;;;;;;8.73;7.80;;;23.30;93.80;;;;;;5071546;28;20575;-64
2021/04/13 04:05:24;;;;;;;14.80;7.15;;;23.40;93.40;;;;;;5072899;28;20099;-62
2021/04/13 04:08:02;;;;;;;7.68;7.00;;;23.30;93.30;;;;;;5072968;28;20389;-63
2021/04/13 04:10:32;;;;;;;8.27;7.15;;;23.40;93.60;;;;;;5072878;28;20409;-63
2021/04/13 04:13:10;;;;;;;8.48;7.78;;;23.40;93.30;;;;;;5072792;28;20108;-63
2021/04/13 04:16:09;;;;;;;8.20;7.50;;;23.00;93.60;;;;;;5071794;28;20119;-62
2021/04/13 04:18:48;;;;;;;8.45;7.75;;;23.10;94.00;;;;;;5068277;28;20086;-63
2021/04/13 04:21:19;;;;;;;7.88;7.40;;;22.90;93.40;;;;;;5072737;28;20027;-63
2021/04/13 04:23:57;;;;;;;8.45;7.78;;;22.90;93.60;;;;;;5072673;28;20021;-63
2021/04/13 04:26:29;;;;;;;8.05;7.55;;;22.80;93.80;;;;;;5072704;28;20055;-62
2021/04/13 04:29:16;;;;;;;7.97;7.22;;;22.80;94.40;;;;;;5072738;28;20045;-63
2021/04/13 04:31:45;;;;;;;7.97;7.18;;;22.90;94.10;;;;;;5072622;28;20540;-63
2021/04/13 04:34:15;;;;;;;8.13;7.43;;;22.90;94.10;;;;;;5072586;28;20024;-63
2021/04/13 04:36:42;;;;;;;8.90;7.60;;;23.20;94.00;;;;;;5072685;28;20055;-62
2021/04/13 04:39:22;;;;;;;8.95;8.18;;;23.10;93.40;;;;;;5072294;28;20049;-63
2021/04/13 04:41:49;;;;;;;12.57;9.30;;;22.80;93.70;;;;;;5071196;28;20055;-63
2021/04/13 04:44:25;;;;;;;9.88;8.80;;;22.70;93.90;;;;;;5072592;28;20020;-64
2021/04/13 04:46:59;;;;;;;8.55;7.85;;;22.50;94.40;;;;;;5072444;28;20103;-62
2021/04/13 04:49:36;;;;;;;8.60;7.90;;;22.40;94.70;;;;;;5071275;28;20048;-63
2021/04/13 04:52:03;;;;;;;8.50;7.80;;;22.60;95.00;;;;;;5072529;28;20020;-63
2021/04/13 04:54:31;;;;;;;8.95;8.05;;;22.50;94.50;;;;;;5072468;28;20115;-64
2021/04/13 04:56:58;;;;;;;8.18;7.50;;;22.40;94.30;;;;;;5071403;28;20082;-63
2021/04/13 04:59:25;;;;;;;7.88;7.38;;;22.30;94.50;;;;;;5072445;28;20514;-64
2021/04/13 05:01:53;;;;;;;7.88;7.18;;;22.10;94.70;;;;;;5072261;28;20029;-63
2021/04/13 05:04:20;;;;;;;7.90;7.30;;;22.00;94.50;;;;;;5070892;28;20415;-63
2021/04/13 05:06:47;;;;;;;8.18;7.72;;;22.10;94.70;;;;;;5072369;28;20020;-63
2021/04/13 05:09:15;;;;;;;7.47;6.85;;;21.90;95.00;;;;;;5072312;28;20021;-63
2021/04/13 05:11:42;;;;;;;8.43;7.90;;;21.90;95.20;;;;;;5072501;28;20161;-64
2021/04/13 05:14:09;;;;;;;8.23;7.05;;;21.80;95.20;;;;;;5072196;28;20100;-63
2021/04/13 05:16:37;;;;;;;8.32;7.90;;;22.00;95.30;;;;;;5072126;28;20032;-62
2021/04/13 05:19:04;;;;;;;8.70;7.95;;;21.80;95.40;;;;;;5072238;28;20028;-62
2021/04/13 05:21:31;;;;;;;9.30;8.48;;;21.70;95.80;;;;;;5070956;28;20020;-64
2021/04/13 05:23:59;;;;;;;8.73;7.93;;;21.70;95.50;;;;;;5072096;28;20447;-63
2021/04/13 05:26:26;;;;;;;8.63;7.82;;;21.60;95.60;;;;;;5072350;28;20098;-64
2021/04/13 05:28:53;;;;;;;8.18;7.57;;;21.50;96.30;;;;;;5073641;28;20024;-64
2021/04/13 05:31:21;;;;;;;7.65;7.10;;;21.30;96.00;;;;;;5075727;28;20493;-64
2021/04/13 05:33:48;;;;;;;8.23;7.30;;;21.30;95.90;;;;;;5075617;28;20048;-64
2021/04/13 05:36:15;;;;;;;7.85;7.30;;;21.20;96.50;;;;;;5075629;28;20028;-64
2021/04/13 05:38:43;;;;;;;8.05;7.03;;;21.20;96.60;;;;;;5075444;28;20053;-64
2021/04/13 05:41:14;;;;;;;8.05;7.40;;;21.20;96.40;;;;;;5074219;28;20037;-63
2021/04/13 05:43:43;;;;;;;8.10;7.40;;;21.20;96.60;;;;;;5074033;28;20111;-63
2021/04/13 05:46:15;;;;;;;7.05;6.55;;;21.10;96.70;;;;;;5075463;28;20021;-63
2021/04/13 05:48:42;;;;;;;7.63;7.00;;;21.00;96.90;;;;;;5075451;28;20421;-64
2021/04/13 05:51:10;;;;;;;8.23;7.57;;;20.80;97.10;;;;;;5075242;28;20099;-63
2021/04/13 05:53:37;;;;;;;7.47;6.95;;;20.70;97.40;;;;;;5075273;28;20027;-63
2021/04/13 05:56:05;;;;;;;8.27;7.60;;;20.60;97.30;;;;;;5075308;28;20388;-63
2021/04/13 05:58:45;;;;;;;7.93;7.43;;;20.50;97.60;;;;;;5075065;28;20059;-64
2021/04/13 06:01:13;;;;;;;7.90;7.33;;;20.40;97.60;;;;;;5075134;28;20020;-63
2021/04/13 06:03:44;;;;;;;8.63;8.02;;;20.30;97.80;;;;;;5073603;28;20024;-64
2021/04/13 06:06:14;;;;;;;8.70;8.00;;;20.30;98.00;;;;;;5073689;28;20031;-63
2021/04/13 06:08:41;;;;;;;8.40;7.70;;;20.30;98.20;;;;;;5075210;28;20523;-64
2021/04/13 06:11:15;;;;;;;8.43;7.80;;;20.30;98.10;;;;;;5074806;28;20021;-63
2021/04/13 06:13:44;;;;;;;8.52;7.90;;;20.30;98.70;;;;;;5074813;28;20029;-64
2021/04/13 06:16:13;;;;;;;8.15;7.55;;;20.20;98.50;;;;;;5074693;28;20025;-62
2021/04/13 06:18:41;;;;;;;9.82;7.43;;;20.10;98.90;;;;;;5074566;28;20028;-63
2021/04/13 06:21:08;;;;;;;11.93;8.48;;;20.20;98.70;;;;;;5074602;28;20050;-63
2021/04/13 06:23:36;;;;;;;7.20;6.60;;;20.20;98.90;;;;;;5074334;28;20021;-62
2021/04/13 06:26:03;;;;;;;8.25;7.32;;;20.20;98.90;;;;;;5074552;28;20473;-62
2021/04/13 06:28:30;;;;;;;6.45;5.95;;;20.00;98.90;;;;;;5074529;28;20092;-63
2021/04/13 06:30:58;;;;;;;7.97;7.20;;;19.90;98.90;;;;;;5074484;28;20025;-63
2021/04/13 06:33:27;;;;;;;8.68;7.80;;;19.90;98.90;;;;;;5073070;28;20025;-63
2021/04/13 06:36:00;;;;;;;9.13;8.47;;;19.80;99.30;;;;;;5074308;28;20508;-61
2021/04/13 06:38:28;;;;;;;8.40;7.80;;;19.70;99.40;;;;;;5072735;28;20051;-62
2021/04/13 06:41:20;;;;;;;8.70;8.10;;;19.70;99.30;;;;;;5072299;28;20056;-62
2021/04/13 06:43:58;;;;;;;8.77;8.23;;;19.70;99.50;;;;;;5074285;28;20024;-62
2021/04/13 06:46:30;;;;;;;8.98;8.20;;;19.50;99.70;;;;;;5074257;28;20016;-62
2021/04/13 06:49:21;;;;;;;8.65;7.95;;;19.40;99.90;;;;;;5074096;28;20029;-63
2021/04/13 06:52:29;;;;;;;9.32;8.38;;;19.30;99.90;;;;;;5074312;28;20032;-62
2021/04/13 06:55:17;;;;;;;8.32;7.70;;;19.20;99.90;;;;;;5074028;28;20103;-62
2021/04/13 06:57:53;;;;;;;7.65;6.88;;;19.10;99.90;;;;;;5073795;28;20082;-65
2021/04/13 07:00:42;;;;;;;9.32;8.48;;;19.00;99.90;;;;;;5073977;28;20435;-63
2021/04/13 07:03:31;;;;;;;9.38;7.30;;;19.00;99.90;;;;;;5073840;28;20051;-66
2021/04/13 07:06:32;;;;;;;8.90;8.10;;;18.90;99.90;;;;;;5074267;28;20119;-64
2021/04/13 07:09:16;;;;;;;7.65;6.95;;;18.80;99.90;;;;;;5073642;28;20042;-66
2021/04/13 07:12:06;;;;;;;8.75;7.85;;;18.70;99.90;;;;;;5073561;28;20499;-62
2021/04/13 07:15:11;;;;;;;7.83;6.87;;;18.60;99.90;;;;;;5073785;28;20025;-66
2021/04/13 07:17:55;;;;;;;7.78;7.10;;;18.60;99.90;;;;;;5073801;28;20340;-63
2021/04/13 07:20:55;;;;;;;7.95;6.57;;;18.60;99.90;;;;;;5073528;28;20472;-62
2021/04/13 07:23:28;;;;;;;7.97;7.28;;;18.40;99.90;;;;;;5070544;28;20393;-63
2021/04/13 07:26:23;;;;;;;7.80;7.10;;;18.30;99.90;;;;;;5072123;28;20020;-62
2021/04/13 07:29:11;;;;;;;9.23;7.47;;;18.20;99.90;;;;;;5073489;28;20024;-60
2021/04/13 07:32:00;;;;;;;7.85;7.32;;;18.10;99.90;;;;;;5073358;28;20443;-64
2021/04/13 07:34:29;;;;;;;9.02;8.23;;;18.10;99.90;;;;;;5072098;28;20024;-60
2021/04/13 07:37:02;;;;;;;10.40;9.38;;;18.10;99.90;;;;;;5072275;28;20020;-59
2021/04/13 07:39:31;;;;;;;8.73;8.07;;;18.10;99.90;;;;;;5072976;28;20131;-64
2021/04/13 07:42:29;;;;;;;8.90;8.30;;;18.10;99.90;;;;;;5073130;28;20028;-64
2021/04/13 07:45:05;;;;;;;9.32;7.90;;;18.00;99.90;;;;;;5068808;28;20443;-61
2021/04/13 07:47:51;;;;;;;8.48;7.75;;;17.90;99.90;;;;;;5073031;28;20056;-62
2021/04/13 07:50:25;;;;;;;24.58;18.60;;;17.90;99.90;;;;;;5073159;28;20069;-61
2021/04/13 07:53:26;;;;;;;8.63;7.93;;;17.80;99.90;;;;;;5072986;28;20035;-60
2021/04/13 07:56:04;;;;;;;10.63;7.90;;;17.80;99.90;;;;;;5041801;28;20056;-63
2021/04/13 07:58:44;;;;;;;8.73;8.02;;;17.80;99.90;;;;;;5072965;28;20107;-61
2021/04/13 08:01:12;;;;;;;8.73;8.00;;;17.80;99.90;;;;;;5071618;28;20124;-61
2021/04/13 08:03:40;;;;;;;8.82;8.00;;;17.70;99.90;;;;;;5072795;28;20036;-61
2021/04/13 08:06:27;;;;;;;9.30;8.50;;;17.70;99.90;;;;;;5072890;28;20020;-61
2021/04/13 08:09:31;;;;;;;9.48;8.68;;;17.60;99.90;;;;;;5058381;28;20107;-60
2021/04/13 08:12:18;;;;;;;10.55;9.07;;;17.60;99.90;;;;;;5072770;28;20047;-60
2021/04/13 08:15:08;;;;;;;11.52;8.95;;;17.50;99.90;;;;;;5072873;28;20016;-61
2021/04/13 08:17:52;;;;;;;9.20;8.45;;;17.60;99.90;;;;;;5072831;28;20118;-60
2021/04/13 08:20:33;;;;;;;9.77;8.90;;;17.60;99.90;;;;;;5072833;28;20024;-61
2021/04/13 08:23:06;;;;;;;10.38;9.13;;;17.60;99.90;;;;;;5072707;28;20025;-60
2021/04/13 08:25:51;;;;;;;9.80;8.82;;;17.50;99.90;;;;;;5072695;28;20056;-61
2021/04/13 08:28:36;;;;;;;8.65;7.85;;;17.50;99.90;;;;;;5072688;28;20435;-60
2021/04/13 08:34:22;;;;;;;10.30;8.65;;;17.40;99.90;;;;;;5073300;28;20085;-61
2021/04/13 08:37:16;;;;;;;9.70;8.90;;;17.30;99.90;;;;;;5072546;28;20044;-61
2021/04/13 08:39:49;;;;;;;9.45;8.75;;;17.30;99.90;;;;;;5072337;28;20079;-61
2021/04/13 08:42:25;;;;;;;9.38;8.57;;;17.30;99.90;;;;;;5072540;28;20105;-61
2021/04/13 08:45:08;;;;;;;15.23;10.07;;;17.30;99.90;;;;;;5072398;28;20028;-61
2021/04/13 08:47:51;;;;;;;11.20;10.35;;;17.20;99.90;;;;;;5071122;28;20035;-60
2021/04/13 08:50:30;;;;;;;10.48;9.45;;;17.20;99.90;;;;;;5072156;28;20050;-61
2021/04/13 08:53:06;;;;;;;11.35;10.27;;;17.10;99.90;;;;;;5072595;28;20063;-60
2021/04/13 08:55:36;;;;;;;11.57;10.65;;;17.10;99.90;;;;;;5072177;28;20029;-61
2021/04/13 08:58:29;;;;;;;11.55;10.45;;;17.00;99.90;;;;;;5071928;28;20074;-60
2021/04/13 09:00:58;;;;;;;10.70;9.85;;;17.00;99.90;;;;;;5062028;28;20035;-60
2021/04/13 09:03:42;;;;;;;11.77;10.60;;;16.90;99.90;;;;;;5072680;28;20366;-60
2021/04/13 09:06:52;;;;;;;10.35;9.55;;;17.00;99.90;;;;;;5075645;28;20540;-60
2021/04/13 09:09:42;;;;;;;10.48;9.77;;;17.00;99.90;;;;;;5059680;28;20043;-61
2021/04/13 09:12:18;;;;;;;10.85;9.75;;;16.90;99.90;;;;;;5076024;28;20028;-60
2021/04/13 09:14:52;;;;;;;10.65;9.75;;;16.80;99.90;;;;;;5076053;28;20081;-60
2021/04/13 09:17:22;;;;;;;11.98;11.07;;;16.70;99.90;;;;;;5075962;28;20041;-61
2021/04/13 09:20:16;;;;;;;12.00;11.20;;;16.70;99.90;;;;;;5075840;28;20370;-61
2021/04/13 09:23:10;;;;;;;11.95;10.95;;;16.70;99.90;;;;;;5075358;28;20107;-61
2021/04/13 09:25:56;;;;;;;11.77;10.88;;;16.70;99.90;;;;;;5048653;28;20059;-61
2021/04/13 09:28:25;;;;;;;12.82;11.93;;;16.70;99.90;;;;;;5075783;28;20024;-61
2021/04/13 09:31:02;;;;;;;13.70;12.77;;;16.70;99.90;;;;;;5074542;28;20025;-61
2021/04/13 09:33:36;;;;;;;13.98;12.90;;;16.60;99.90;;;;;;5075669;28;20029;-61
2021/04/13 09:36:25;;;;;;;13.00;11.90;;;16.50;99.90;;;;;;5075631;28;20429;-60
2021/04/13 09:39:10;;;;;;;12.43;11.60;;;16.40;99.90;;;;;;5075273;28;20048;-60
2021/04/13 09:42:05;;;;;;;12.90;11.70;;;16.30;99.90;;;;;;5075486;28;20032;-61
2021/04/13 09:44:41;;;;;;;13.65;12.50;;;16.30;99.90;;;;;;5075460;28;20099;-61
2021/04/13 09:47:19;;;;;;;14.77;13.85;;;16.30;99.90;;;;;;5075573;28;20043;-61
2021/04/13 09:49:58;;;;;;;14.25;13.35;;;16.30;99.90;;;;;;5075498;28;20025;-60
2021/04/13 09:53:05;;;;;;;14.05;13.07;;;16.30;99.90;;;;;;5075403;28;20013;-61
2021/04/13 09:55:51;;;;;;;16.75;15.07;;;16.40;99.90;;;;;;5075389;28;20047;-60
2021/04/13 09:58:46;;;;;;;14.18;13.27;;;16.30;99.90;;;;;;5075135;28;20044;-61
2021/04/13 10:01:32;;;;;;;14.13;13.00;;;16.30;99.90;;;;;;5075176;28;20493;-61
2021/04/13 10:04:02;;;;;;;14.25;13.25;;;16.30;99.90;;;;;;5074988;28;20048;-61
2021/04/13 10:06:36;;;;;;;15.38;14.20;;;16.20;99.90;;;;;;5075033;28;20040;-60
2021/04/13 10:09:21;;;;;;;14.70;13.55;;;16.20;99.90;;;;;;5074921;28;20249;-60
2021/04/13 10:12:15;;;;;;;14.85;13.75;;;16.20;99.90;;;;;;5075016;28;20051;-60
2021/04/13 10:15:19;;;;;;;14.68;13.77;;;16.20;99.90;;;;;;5074059;28;20099;-61
2021/04/13 10:18:08;;;;;;;15.88;14.73;;;16.20;99.90;;;;;;5074841;28;20052;-61
2021/04/13 10:20:57;;;;;;;16.60;15.55;;;16.10;99.90;;;;;;5074793;28;20024;-61
2021/04/13 10:23:33;;;;;;;16.83;15.73;;;16.00;99.90;;;;;;5074802;28;20389;-61
2021/04/13 10:26:37;;;;;;;16.50;15.40;;;16.00;99.90;;;;;;5074838;28;20028;-61
2021/04/13 10:29:25;;;;;;;15.75;14.85;;;16.10;99.90;;;;;;5074617;28;20013;-60
2021/04/13 10:32:04;;;;;;;16.85;15.45;;;16.00;99.90;;;;;;5074679;28;20017;-62
2021/04/13 10:34:54;;;;;;;16.35;15.15;;;15.90;99.90;;;;;;5074632;28;20460;-60
2021/04/13 10:37:48;;;;;;;17.10;15.82;;;15.90;99.90;;;;;;5074721;28;20047;-62
2021/04/13 10:40:28;;;;;;;18.27;17.02;;;15.80;99.90;;;;;;5074388;28;20036;-61
2021/04/13 10:43:14;;;;;;;;;;;15.80;99.90;;;;;;5074827;28;20059;-61
2021/04/13 10:46:05;;;;;;;18.63;17.40;;;15.80;99.90;;;;;;5073088;28;19905;-60
2021/04/13 10:48:54;;;;;;;19.23;17.90;;;15.80;99.90;;;;;;5074195;28;20025;-62
2021/04/13 10:52:07;;;;;;;20.05;18.85;;;15.70;99.90;;;;;;5074283;28;20020;-60
2021/04/13 10:54:53;;;;;;;20.38;19.13;;;15.60;99.90;;;;;;5074271;28;20038;-60
2021/04/13 10:57:27;;;;;;;20.98;19.73;;;15.60;99.90;;;;;;5074041;28;20021;-60
2021/04/13 11:00:12;;;;;;;22.23;20.83;;;15.50;99.90;;;;;;5074035;28;20035;-61
2021/04/13 11:02:58;;;;;;;22.70;21.42;;;15.50;99.90;;;;;;5072602;28;20021;-62
2021/04/13 11:05:57;;;;;;;22.48;21.08;;;15.50;99.90;;;;;;5073868;28;20089;-60
2021/04/13 11:08:54;;;;;;;22.50;21.30;;;15.50;99.90;;;;;;5073832;28;20024;-61
2021/04/13 11:11:39;;;;;;;23.60;22.20;;;15.50;99.90;;;;;;5073780;28;20025;-61
2021/04/13 11:14:16;;;;;;;23.10;21.80;;;15.50;99.90;;;;;;5074011;28;20024;-61
2021/04/13 11:17:11;;;;;;;23.85;22.33;;;15.50;99.90;;;;;;5073741;28;20020;-62
2021/04/13 11:20:02;;;;;;;25.90;24.10;;;15.40;99.90;;;;;;5073659;28;20024;-61
2021/04/13 11:22:43;;;;;;;;;;;15.30;99.90;;;;;;5072465;28;20035;-61
2021/04/13 11:25:35;;;;;;;26.52;24.92;;;15.30;99.90;;;;;;5072182;28;19905;-62
2021/04/13 11:28:41;;;;;;;26.95;25.25;;;15.20;99.90;;;;;;5073168;28;20021;-61
2021/04/13 11:31:20;;;;;;;28.17;26.27;;;15.20;99.90;;;;;;5073314;28;20031;-61
2021/04/13 11:34:04;;;;;;;28.95;27.17;;;15.10;99.90;;;;;;5073427;28;20028;-62
2021/04/13 11:37:05;;;;;;;28.98;27.38;;;15.00;99.90;;;;;;5073217;28;20147;-60
2021/04/13 11:39:40;;;;;;;28.65;27.05;;;15.00;99.90;;;;;;5072960;28;20098;-60
2021/04/13 11:42:10;;;;;;;30.35;28.35;;;15.00;99.90;;;;;;5073037;28;20021;-61
2021/04/13 11:44:52;;;;;;;29.17;27.27;;;15.00;99.90;;;;;;5071750;28;20070;-62
2021/04/13 11:47:27;;;;;;;30.08;28.17;;;15.00;99.90;;;;;;5073111;28;20025;-61
2021/04/13 11:50:01;;;;;;;29.85;28.17;;;15.00;99.90;;;;;;5073053;28;20066;-62
2021/04/13 11:52:54;;;;;;;29.08;27.35;;;15.00;99.90;;;;;;5073071;28;20024;-60
2021/04/13 11:55:31;;;;;;;29.67;27.77;;;15.00;99.90;;;;;;5041640;28;20048;-60
2021/04/13 11:58:21;;;;;;;29.75;27.63;;;15.00;99.90;;;;;;5072772;28;20035;-60
2021/04/13 12:00:53;;;;;;;31.52;28.50;;;15.00;99.90;;;;;;5073071;28;20035;-60
2021/04/13 12:03:31;;;;;;;31.15;29.27;;;15.00;99.90;;;;;;5071506;28;20165;-60
2021/04/13 12:06:02;;;;;;;31.60;29.73;;;15.00;99.90;;;;;;5072692;28;20023;-61
2021/04/13 12:08:38;;;;;;;32.30;30.30;;;15.00;99.90;;;;;;5072750;28;20025;-60
2021/04/13 12:11:08;;;;;;;34.13;31.88;;;15.00;99.90;;;;;;5072771;28;20016;-61
2021/04/13 12:13:43;;;;;;;31.95;30.05;;;15.00;99.90;;;;;;5072830;28;20029;-61
2021/04/13 12:16:15;;;;;;;32.40;30.23;;;15.00;99.90;;;;;;5072850;28;20086;-61
2021/04/13 12:19:05;;;;;;;30.95;28.88;;;15.00;99.90;;;;;;5072926;28;20103;-61
2021/04/13 12:21:37;;;;;;;31.63;29.73;;;15.00;99.90;;;;;;5064892;28;20400;-60
2021/04/13 12:24:19;;;;;;;32.05;30.20;;;15.10;99.90;;;;;;5072537;28;20503;-60
2021/04/13 12:26:50;;;;;;;32.35;30.25;;;15.10;99.90;;;;;;5071468;28;20021;-60
2021/04/13 12:29:21;;;;;;;32.03;30.20;;;15.10;99.90;;;;;;5072721;28;20017;-61
2021/04/13 12:32:13;;;;;;;33.38;31.27;;;15.10;99.90;;;;;;5073224;28;20037;-61
2021/04/13 12:34:50;;;;;;;31.38;29.67;;;15.10;99.90;;;;;;5072745;28;20021;-61
2021/04/13 12:37:36;;;;;;;32.80;30.75;;;15.10;99.90;;;;;;5072752;28;20029;-61
2021/04/13 12:40:23;;;;;;;33.10;31.30;;;15.10;99.90;;;;;;5076169;28;20047;-61
2021/04/13 12:42:56;;;;;;;32.72;30.63;;;15.10;99.90;;;;;;5075230;28;20035;-61
2021/04/13 12:45:27;;;;;;;32.70;30.58;;;15.10;99.90;;;;;;5076551;28;20052;-61
2021/04/13 12:48:26;;;;;;;32.20;30.20;;;15.10;99.90;;;;;;5076582;28;20499;-60
2021/04/13 12:51:11;;;;;;;31.38;29.48;;;15.10;99.90;;;;;;5076564;28;20029;-65
2021/04/13 12:53:39;;;;;;;32.22;30.23;;;15.20;99.90;;;;;;5076566;28;20108;-61
2021/04/13 12:56:14;;;;;;;36.33;34.42;;;15.20;99.90;;;;;;5076549;28;20472;-62
2021/04/13 12:58:44;;;;;;;32.35;30.27;;;15.20;99.90;;;;;;5076331;28;20476;-61
2021/04/13 13:01:21;;;;;;;30.98;29.20;;;15.30;99.90;;;;;;5076230;28;20027;-66
2021/04/13 13:03:48;;;;;;;29.85;27.88;;;15.30;99.90;;;;;;5076230;28;20484;-60
2021/04/13 13:06:23;;;;;;;32.22;30.20;;;15.30;99.90;;;;;;5076116;28;20044;-61
2021/04/13 13:09:28;;;;;;;44.28;42.08;;;15.30;99.90;;;;;;5076137;28;20071;-61
2021/04/13 13:12:25;;;;;;;42.60;40.22;;;15.30;99.90;;;;;;5076095;28;20020;-61
2021/04/13 13:15:05;;;;;;;43.50;41.20;;;15.20;99.90;;;;;;5070999;28;20032;-61
2021/04/13 13:17:36;;;;;;;44.58;42.13;;;15.20;99.90;;;;;;5074649;28;20024;-61
2021/04/13 13:20:07;;;;;;;44.13;41.45;;;15.10;99.90;;;;;;5075939;28;20025;-61
2021/04/13 13:22:35;;;;;;;42.70;40.33;;;15.00;99.90;;;;;;5075945;28;20020;-61
2021/04/13 13:25:22;;;;;;;41.28;38.97;;;14.90;99.90;;;;;;5075774;28;20021;-62
2021/04/13 13:27:50;;;;;;;41.67;39.38;;;14.90;99.90;;;;;;5075892;28;20016;-61
2021/04/13 13:30:21;;;;;;;42.75;40.30;;;14.80;99.90;;;;;;5075722;28;20028;-61
2021/04/13 13:32:48;;;;;;;43.17;40.78;;;14.80;99.90;;;;;;5075716;28;20074;-61
2021/04/13 13:35:18;;;;;;;41.03;38.83;;;14.80;99.90;;;;;;5075594;28;20024;-61
2021/04/13 13:37:49;;;;;;;41.42;38.92;;;14.80;99.90;;;;;;5075622;28;20024;-62
2021/04/13 13:40:22;;;;;;;40.70;38.45;;;14.80;99.90;;;;;;5075555;28;20041;-61